createdAt,value
2023-04-09T00:02:38.251Z,5.83
2023-04-09T00:05:42.383Z,5.82
2023-04-09T00:08:50.474Z,5.77
2023-04-09T00:11:54.759Z,5.75
2023-04-09T00:14:58.435Z,5.77
2023-04-09T00:18:02.535Z,5.24
2023-04-09T00:21:07.339Z,5.64
2023-04-09T00:24:13.557Z,5.61
2023-04-09T00:27:17.428Z,5.55
2023-04-09T00:30:21.578Z,5.64
2023-04-09T00:33:28.259Z,5.55
2023-04-09T00:36:31.865Z,5.30
2023-04-09T00:39:37.749Z,5.56
2023-04-09T00:42:42.588Z,5.49
2023-04-09T00:45:46.915Z,5.58
2023-04-09T00:48:50.878Z,5.57
2023-04-09T00:51:54.812Z,5.49
2023-04-09T00:55:02.802Z,4.99
2023-04-09T00:58:06.777Z,5.24
2023-04-09T01:01:10.505Z,5.18
2023-04-09T01:04:14.304Z,5.38
2023-04-09T01:07:25.054Z,5.11
2023-04-09T01:10:42.637Z,5.46
2023-04-09T01:13:51.955Z,5.35
2023-04-09T01:17:01.823Z,5.52
2023-04-09T01:20:11.653Z,4.28
2023-04-09T01:23:20.719Z,5.19
2023-04-09T01:26:39.799Z,5.33
2023-04-09T01:29:48.878Z,5.44
2023-04-09T01:32:55.725Z,5.18
2023-04-09T01:36:00.887Z,5.48
2023-04-09T01:39:04.492Z,5.45
2023-04-09T01:42:11.495Z,5.02
2023-04-09T01:45:16.995Z,4.68
2023-04-09T01:48:21.614Z,5.28
2023-04-09T01:51:27.429Z,5.33
2023-04-09T01:54:31.281Z,5.31
2023-04-09T01:57:34.879Z,5.26
2023-04-09T02:00:46.871Z,5.27
2023-04-09T02:03:55.378Z,4.88
2023-04-09T02:07:04.861Z,5.12
2023-04-09T02:10:10.294Z,5.17
2023-04-09T02:13:19.406Z,5.20
2023-04-09T02:16:24.888Z,4.96
2023-04-09T02:19:39.561Z,4.91
2023-04-09T02:22:42.928Z,4.49
2023-04-09T02:25:47.164Z,5.01
2023-04-09T02:28:50.742Z,4.57
2023-04-09T02:31:56.324Z,4.38
2023-04-09T02:34:59.688Z,4.74
2023-04-09T02:38:06.234Z,4.63
2023-04-09T02:41:10.603Z,4.04
2023-04-09T02:44:14.626Z,3.96
2023-04-09T02:47:20.202Z,4.45
2023-04-09T02:50:23.844Z,4.28
2023-04-09T02:53:29.371Z,2.74
2023-04-09T02:56:33.012Z,3.97
2023-04-09T02:59:39.598Z,3.38
2023-04-09T03:02:45.452Z,3.65
2023-04-09T03:05:48.974Z,3.76
2023-04-09T03:08:53.308Z,3.58
2023-04-09T03:11:57.728Z,3.23
2023-04-09T03:15:02.380Z,3.39
2023-04-09T03:18:08.609Z,2.85
2023-04-09T03:21:14.886Z,2.52
2023-04-09T03:24:23.787Z,1.91
2023-04-09T03:27:27.870Z,2.99
2023-04-09T03:30:33.138Z,3.30
2023-04-09T03:35:02.021Z,3.21
2023-04-09T03:38:06.215Z,3.09
2023-04-09T03:41:09.840Z,3.00
2023-04-09T03:44:13.211Z,3.11
2023-04-09T03:47:34.846Z,2.89
2023-04-09T03:50:43.062Z,2.72
2023-04-09T03:53:49.739Z,2.63
2023-04-09T03:56:53.467Z,2.61
2023-04-09T04:00:00.079Z,2.50
2023-04-09T04:03:04.531Z,2.29
2023-04-09T04:06:28.772Z,2.37
2023-04-09T04:09:45.882Z,2.28
2023-04-09T04:12:52.859Z,2.56
2023-04-09T04:16:09.454Z,2.37
2023-04-09T04:19:14.743Z,2.16
2023-04-09T04:22:25.611Z,2.15
2023-04-09T04:25:34.089Z,2.32
2023-04-09T04:28:38.080Z,2.29
2023-04-09T04:31:42.721Z,2.08
2023-04-09T04:34:50.000Z,2.11
2023-04-09T04:38:04.232Z,2.04
2023-04-09T04:41:12.281Z,2.18
2023-04-09T04:44:20.186Z,2.07
2023-04-09T04:47:26.740Z,2.14
2023-04-09T04:50:29.943Z,2.02
2023-04-09T04:53:38.684Z,1.88
2023-04-09T04:56:46.654Z,1.98
2023-04-09T05:00:01.296Z,1.98
2023-04-09T05:03:04.844Z,2.08
2023-04-09T05:06:29.887Z,2.02
2023-04-09T05:09:36.028Z,2.11
2023-04-09T05:12:43.481Z,2.03
2023-04-09T05:15:48.857Z,1.95
2023-04-09T05:18:52.832Z,2.25
2023-04-09T05:21:56.238Z,1.99
2023-04-09T05:25:00.886Z,2.03
2023-04-09T05:28:04.296Z,2.12
2023-04-09T05:31:12.970Z,2.27
2023-04-09T05:34:22.219Z,2.17
2023-04-09T05:37:28.789Z,2.34
2023-04-09T05:40:36.285Z,2.29
2023-04-09T05:43:43.717Z,2.19
2023-04-09T05:46:47.547Z,2.28
2023-04-09T05:49:54.416Z,2.35
2023-04-09T05:52:58.346Z,2.51
2023-04-09T05:56:16.502Z,2.53
2023-04-09T05:59:27.738Z,2.78
2023-04-09T06:02:30.991Z,3.03
2023-04-09T06:05:34.177Z,2.96
2023-04-09T06:08:37.810Z,3.53
2023-04-09T06:11:42.286Z,3.71
2023-04-09T06:14:45.495Z,4.25
2023-04-09T06:17:48.643Z,4.44
2023-04-09T06:20:51.960Z,5.19
2023-04-09T06:23:55.208Z,5.42
2023-04-09T06:26:59.730Z,5.82
2023-04-09T06:30:02.890Z,5.99
2023-04-09T06:33:06.059Z,6.42
2023-04-09T06:36:09.464Z,6.25
2023-04-09T06:39:12.832Z,5.92
2023-04-09T06:42:17.272Z,6.41
2023-04-09T06:45:33.553Z,6.95
2023-04-09T06:48:37.078Z,6.89
2023-04-09T06:51:40.289Z,7.22
2023-04-09T06:54:43.495Z,6.80
2023-04-09T06:57:48.265Z,7.22
2023-04-09T07:00:51.395Z,7.54
2023-04-09T07:03:54.774Z,7.39
2023-04-09T07:06:59.277Z,8.01
2023-04-09T07:10:02.442Z,7.92
2023-04-09T07:13:06.933Z,7.58
2023-04-09T07:16:10.410Z,8.53
2023-04-09T07:19:13.544Z,8.18
2023-04-09T07:22:16.748Z,8.26
2023-04-09T07:25:19.852Z,8.35
2023-04-09T07:28:24.591Z,8.30
2023-04-09T07:31:27.910Z,8.46
2023-04-09T07:34:31.112Z,9.64
2023-04-09T07:37:34.775Z,9.34
2023-04-09T07:40:38.130Z,9.18
2023-04-09T07:43:43.234Z,9.74
2023-04-09T07:46:46.423Z,9.81
2023-04-09T07:49:49.683Z,10.08
2023-04-09T07:52:52.812Z,9.22
2023-04-09T07:55:56.398Z,9.67
2023-04-09T07:59:00.863Z,9.94
2023-04-09T08:02:04.554Z,9.94
2023-04-09T08:05:09.013Z,10.26
2023-04-09T08:08:12.612Z,9.95
2023-04-09T08:11:15.696Z,9.86
2023-04-09T08:14:21.188Z,9.59
2023-04-09T08:17:24.564Z,9.82
2023-04-09T08:20:27.816Z,10.00
2023-04-09T08:23:30.991Z,10.20
2023-04-09T08:26:34.144Z,9.75
2023-04-09T08:29:40.453Z,10.17
2023-04-09T08:32:44.434Z,10.20
2023-04-09T08:35:47.640Z,10.55
2023-04-09T08:38:50.917Z,10.24
2023-04-09T08:41:58.884Z,9.94
2023-04-09T08:45:05.836Z,10.30
2023-04-09T08:48:11.046Z,10.38
2023-04-09T08:51:15.577Z,10.34
2023-04-09T08:54:20.152Z,10.00
2023-04-09T08:57:23.423Z,10.34
2023-04-09T09:00:28.140Z,10.37
2023-04-09T09:03:31.395Z,10.50
2023-04-09T09:06:36.077Z,9.79
2023-04-09T09:09:52.596Z,10.50
2023-04-09T09:12:55.981Z,11.09
2023-04-09T09:16:16.004Z,10.74
2023-04-09T09:19:31.393Z,9.90
2023-04-09T09:22:55.120Z,10.66
2023-04-09T09:25:58.820Z,11.08
2023-04-09T09:29:05.749Z,10.76
2023-04-09T09:35:04.299Z,10.55
2023-04-09T09:38:07.609Z,11.01
2023-04-09T09:41:17.914Z,10.25
2023-04-09T09:44:32.785Z,10.19
2023-04-09T09:47:36.565Z,10.13
2023-04-09T09:50:42.724Z,10.26
2023-04-09T09:53:49.136Z,10.67
2023-04-09T09:56:55.750Z,10.27
2023-04-09T10:00:03.715Z,10.44
2023-04-09T10:03:21.113Z,10.63
2023-04-09T10:06:26.382Z,10.64
2023-04-09T10:09:30.091Z,10.91
2023-04-09T10:12:34.683Z,10.63
2023-04-09T10:15:38.329Z,11.05
2023-04-09T10:18:43.664Z,10.82
2023-04-09T10:21:54.673Z,10.90
2023-04-09T10:24:58.052Z,10.61
2023-04-09T10:28:02.232Z,10.59
2023-04-09T10:31:06.620Z,10.77
2023-04-09T10:34:10.956Z,11.21
2023-04-09T10:37:17.971Z,10.78
2023-04-09T10:40:22.402Z,11.31
2023-04-09T10:43:25.608Z,11.67
2023-04-09T10:46:30.429Z,11.54
2023-04-09T10:49:37.966Z,11.38
2023-04-09T10:52:44.187Z,11.54
2023-04-09T10:55:50.542Z,11.88
2023-04-09T10:58:54.358Z,12.03
2023-04-09T11:01:57.723Z,11.82
2023-04-09T11:05:08.042Z,12.11
2023-04-09T11:08:13.900Z,12.01
2023-04-09T11:11:17.068Z,11.95
2023-04-09T11:14:21.543Z,11.97
2023-04-09T11:17:24.755Z,11.69
2023-04-09T11:20:27.962Z,11.60
2023-04-09T11:23:33.124Z,11.70
2023-04-09T11:26:37.475Z,11.88
2023-04-09T11:29:40.682Z,12.37
2023-04-09T11:32:43.917Z,11.96
2023-04-09T11:35:47.369Z,12.50
2023-04-09T11:38:52.472Z,12.35
2023-04-09T11:41:57.817Z,12.55
2023-04-09T11:45:01.940Z,12.33
2023-04-09T11:48:05.727Z,12.95
2023-04-09T11:51:09.064Z,12.66
2023-04-09T11:54:14.117Z,12.81
2023-04-09T11:57:18.056Z,12.91
2023-04-09T12:00:21.681Z,12.78
2023-04-09T12:03:33.866Z,12.88
2023-04-09T12:06:41.748Z,12.57
2023-04-09T12:09:50.239Z,12.27
2023-04-09T12:12:53.375Z,12.11
2023-04-09T12:15:58.741Z,12.40
2023-04-09T12:19:02.660Z,12.51
2023-04-09T12:22:06.241Z,12.35
2023-04-09T12:25:11.370Z,12.56
2023-04-09T12:28:18.131Z,12.39
2023-04-09T12:31:21.658Z,12.55
2023-04-09T12:34:24.775Z,12.46
2023-04-09T12:37:28.796Z,12.71
2023-04-09T12:40:36.881Z,12.51
2023-04-09T12:43:40.188Z,12.30
2023-04-09T12:46:43.513Z,12.61
2023-04-09T12:49:46.747Z,12.49
2023-04-09T12:52:49.883Z,12.81
2023-04-09T12:55:54.581Z,13.08
2023-04-09T12:58:57.718Z,13.09
2023-04-09T13:02:01.091Z,13.14
2023-04-09T13:05:05.110Z,12.78
2023-04-09T13:08:08.213Z,12.85
2023-04-09T13:11:12.703Z,12.83
2023-04-09T13:14:16.104Z,12.72
2023-04-09T13:17:19.336Z,12.86
2023-04-09T13:20:22.642Z,12.88
2023-04-09T13:23:25.915Z,12.94
2023-04-09T13:26:31.224Z,12.86
2023-04-09T13:29:34.422Z,12.83
2023-04-09T13:32:37.753Z,12.83
2023-04-09T13:35:41.002Z,13.39
2023-04-09T13:38:44.176Z,13.64
2023-04-09T13:41:48.759Z,13.43
2023-04-09T13:44:51.869Z,13.34
2023-04-09T13:47:55.117Z,13.04
2023-04-09T13:50:58.272Z,13.10
2023-04-09T13:54:02.770Z,12.99
2023-04-09T13:57:10.257Z,12.84
2023-04-09T14:00:14.650Z,12.69
2023-04-09T14:03:18.084Z,12.61
2023-04-09T14:06:21.390Z,12.46
2023-04-09T14:09:24.518Z,12.54
2023-04-09T14:12:29.047Z,12.35
2023-04-09T14:15:32.422Z,12.33
2023-04-09T14:18:35.705Z,12.11
2023-04-09T14:21:39.711Z,12.02
2023-04-09T14:24:43.428Z,11.92
2023-04-09T14:27:48.358Z,11.98
2023-04-09T14:30:51.512Z,12.14
2023-04-09T14:33:54.817Z,12.38
2023-04-09T14:36:58.104Z,12.69
2023-04-09T14:40:01.376Z,12.74
2023-04-09T14:43:06.028Z,12.74
2023-04-09T14:46:11.810Z,12.69
2023-04-09T14:49:15.370Z,12.69
2023-04-09T14:52:19.285Z,12.81
2023-04-09T14:55:22.468Z,13.21
2023-04-09T14:58:27.050Z,12.92
2023-04-09T15:01:32.537Z,12.38
2023-04-09T15:04:36.355Z,12.76
2023-04-09T15:07:39.750Z,13.02
2023-04-09T15:10:43.356Z,13.43
2023-04-09T15:13:47.830Z,13.34
2023-04-09T15:16:51.682Z,13.46
2023-04-09T15:19:54.932Z,13.08
2023-04-09T15:22:58.085Z,13.46
2023-04-09T15:26:01.333Z,13.53
2023-04-09T15:29:08.644Z,13.63
2023-04-09T15:35:01.867Z,13.70
2023-04-09T15:38:05.221Z,13.67
2023-04-09T15:41:08.400Z,14.05
2023-04-09T15:44:11.646Z,13.71
2023-04-09T15:47:15.154Z,13.47
2023-04-09T15:50:19.671Z,13.53
2023-04-09T15:53:26.571Z,13.59
2023-04-09T15:56:29.828Z,13.52
2023-04-09T15:59:33.285Z,13.15
2023-04-09T16:02:38.615Z,13.23
2023-04-09T16:05:43.324Z,13.31
2023-04-09T16:08:46.721Z,13.33
2023-04-09T16:11:50.924Z,13.46
2023-04-09T16:14:54.471Z,13.55
2023-04-09T16:17:57.747Z,13.38
2023-04-09T16:21:02.785Z,13.34
2023-04-09T16:24:06.018Z,13.36
2023-04-09T16:27:09.210Z,13.17
2023-04-09T16:30:13.063Z,12.74
2023-04-09T16:33:16.204Z,12.79
2023-04-09T16:36:20.785Z,12.61
2023-04-09T16:39:24.054Z,12.35
2023-04-09T16:42:27.742Z,12.20
2023-04-09T16:45:32.001Z,12.15
2023-04-09T16:48:37.082Z,12.13
2023-04-09T16:51:41.688Z,12.04
2023-04-09T16:54:44.903Z,12.07
2023-04-09T16:57:48.202Z,11.96
2023-04-09T17:00:52.030Z,11.90
2023-04-09T17:03:56.416Z,11.78
2023-04-09T17:07:00.933Z,11.76
2023-04-09T17:10:04.148Z,11.60
2023-04-09T17:13:07.593Z,11.64
2023-04-09T17:16:11.717Z,11.60
2023-04-09T17:19:14.864Z,11.59
2023-04-09T17:22:19.337Z,11.53
2023-04-09T17:25:22.597Z,11.49
2023-04-09T17:28:25.829Z,11.38
2023-04-09T17:31:29.066Z,11.34
2023-04-09T17:34:32.239Z,11.29
2023-04-09T17:37:37.619Z,11.19
2023-04-09T17:40:40.947Z,11.06
2023-04-09T17:43:44.364Z,11.00
2023-04-09T17:46:47.579Z,10.89
2023-04-09T17:49:50.703Z,10.79
2023-04-09T17:52:56.608Z,10.66
2023-04-09T17:55:59.709Z,10.55
2023-04-09T17:59:02.960Z,10.46
2023-04-09T18:02:06.472Z,10.36
2023-04-09T18:05:10.783Z,10.41
2023-04-09T18:08:17.407Z,10.39
2023-04-09T18:11:21.081Z,10.20
2023-04-09T18:14:24.662Z,10.22
2023-04-09T18:17:27.868Z,10.13
2023-04-09T18:20:31.036Z,10.03
2023-04-09T18:23:36.034Z,9.85
2023-04-09T18:26:39.159Z,9.87
2023-04-09T18:29:42.388Z,9.82
2023-04-09T18:32:48.118Z,9.69
2023-04-09T18:35:51.406Z,9.50
2023-04-09T18:38:57.809Z,9.59
2023-04-09T18:42:01.620Z,9.49
2023-04-09T18:45:05.361Z,9.26
2023-04-09T18:48:08.895Z,9.18
2023-04-09T18:51:12.206Z,8.99
2023-04-09T18:54:16.644Z,8.93
2023-04-09T18:57:20.053Z,8.83
2023-04-09T19:00:23.199Z,8.62
2023-04-09T19:03:28.679Z,8.65
2023-04-09T19:06:35.901Z,8.30
2023-04-09T19:09:41.636Z,8.14
2023-04-09T19:12:50.878Z,8.18
2023-04-09T19:15:54.172Z,8.24
2023-04-09T19:18:57.671Z,8.13
2023-04-09T19:22:01.593Z,8.00
2023-04-09T19:25:07.626Z,8.09
2023-04-09T19:28:11.484Z,8.07
2023-04-09T19:31:15.103Z,7.85
2023-04-09T19:34:18.246Z,7.85
2023-04-09T19:37:24.158Z,7.80
2023-04-09T19:40:34.593Z,7.97
2023-04-09T19:43:39.314Z,7.99
2023-04-09T19:46:42.756Z,7.99
2023-04-09T19:49:45.949Z,8.02
2023-04-09T19:52:49.255Z,7.67
2023-04-09T19:55:53.815Z,7.68
2023-04-09T19:58:56.948Z,7.43
2023-04-09T20:02:00.662Z,7.36
2023-04-09T20:05:04.033Z,7.21
2023-04-09T20:08:10.999Z,7.10
2023-04-09T20:11:18.551Z,7.00
2023-04-09T20:14:21.987Z,6.91
2023-04-09T20:17:25.517Z,6.83
2023-04-09T20:20:28.725Z,6.89
2023-04-09T20:23:31.924Z,6.85
2023-04-09T20:26:36.423Z,6.70
2023-04-09T20:29:39.740Z,6.72
2023-04-09T20:32:42.961Z,6.55
2023-04-09T20:35:46.657Z,6.44
2023-04-09T20:38:49.860Z,6.31
2023-04-09T20:41:55.014Z,6.20
2023-04-09T20:45:00.222Z,6.62
2023-04-09T20:48:05.014Z,6.61
2023-04-09T20:51:10.604Z,6.59
2023-04-09T20:54:13.779Z,6.31
2023-04-09T20:57:18.608Z,6.33
2023-04-09T21:00:22.183Z,5.98
2023-04-09T21:03:25.476Z,5.98
2023-04-09T21:06:29.072Z,5.81
2023-04-09T21:09:32.229Z,5.78
2023-04-09T21:12:36.800Z,5.76
2023-04-09T21:15:40.368Z,5.46
2023-04-09T21:18:43.969Z,5.45
2023-04-09T21:21:47.132Z,5.37
2023-04-09T21:24:52.510Z,5.36
2023-04-09T21:27:57.026Z,5.34
2023-04-09T21:35:00.543Z,5.12
2023-04-09T21:38:04.525Z,5.17
2023-04-09T21:41:08.550Z,5.14
2023-04-09T21:44:12.133Z,5.03
2023-04-09T21:47:16.042Z,5.23
2023-04-09T21:50:21.117Z,4.86
2023-04-09T21:53:24.320Z,5.18
2023-04-09T21:56:27.700Z,5.48
2023-04-09T21:59:31.123Z,5.11
2023-04-09T22:02:35.063Z,4.84
2023-04-09T22:05:39.772Z,4.59
2023-04-09T22:08:55.362Z,4.74
2023-04-09T22:12:00.406Z,4.34
2023-04-09T22:15:05.901Z,4.89
2023-04-09T22:18:09.632Z,3.37
2023-04-09T22:21:16.771Z,4.62
2023-04-09T22:24:21.580Z,4.71
2023-04-09T22:27:24.882Z,4.50
2023-04-09T22:30:29.153Z,4.44
2023-04-09T22:33:32.714Z,4.48
2023-04-09T22:36:37.573Z,4.45
2023-04-09T22:39:41.015Z,4.58
2023-04-09T22:42:47.035Z,4.49
2023-04-09T22:45:54.528Z,4.41
2023-04-09T22:49:04.587Z,4.29
2023-04-09T22:52:10.582Z,4.45
2023-04-09T22:55:13.954Z,4.36
2023-04-09T22:58:17.502Z,3.51
2023-04-09T23:01:22.396Z,3.58
2023-04-09T23:04:26.246Z,4.10
2023-04-09T23:07:31.135Z,3.67
2023-04-09T23:10:35.195Z,4.12
2023-04-09T23:13:38.796Z,4.17
2023-04-09T23:16:42.177Z,3.94
2023-04-09T23:19:46.065Z,3.80
2023-04-09T23:22:51.118Z,3.60
2023-04-09T23:25:55.137Z,3.43
2023-04-09T23:28:58.497Z,3.28
2023-04-09T23:32:03.026Z,3.42
2023-04-09T23:35:07.532Z,3.24
2023-04-09T23:38:12.429Z,2.99
2023-04-09T23:41:16.014Z,3.27
2023-04-09T23:44:19.523Z,3.03
2023-04-09T23:47:22.901Z,3.04
2023-04-09T23:50:28.644Z,2.97
2023-04-09T23:53:33.569Z,2.75
2023-04-09T23:56:37.561Z,3.10
2023-04-09T23:59:40.777Z,3.01
